createdAt,value
2023-10-07T00:01:01.130Z,101663.66
2023-10-07T00:03:27.874Z,101666.63
2023-10-07T00:06:01.923Z,101667.91
2023-10-07T00:08:29.556Z,101674.47
2023-10-07T00:10:59.943Z,101661.50
2023-10-07T00:13:31.717Z,101641.53
2023-10-07T00:16:01.010Z,101652.56
2023-10-07T00:18:29.533Z,101661.06
2023-10-07T00:20:56.884Z,101658.50
2023-10-07T00:23:27.287Z,101674.44
2023-10-07T00:25:56.190Z,101675.03
2023-10-07T00:28:34.568Z,101666.94
2023-10-07T00:31:05.413Z,101664.41
2023-10-07T00:33:47.349Z,101666.31
2023-10-07T00:36:17.231Z,101663.97
2023-10-07T00:38:45.365Z,101664.16
2023-10-07T00:41:17.058Z,101663.53
2023-10-07T00:43:44.039Z,101667.53
2023-10-07T00:46:10.725Z,101666.91
2023-10-07T00:48:53.628Z,101654.13
2023-10-07T00:51:36.174Z,101645.22
2023-10-07T00:54:19.559Z,101664.97
2023-10-07T00:57:05.895Z,101659.19
2023-10-07T00:59:33.233Z,101668.91
2023-10-07T01:02:00.764Z,101671.88
2023-10-07T01:04:41.023Z,101672.69
2023-10-07T01:07:08.549Z,101668.03
2023-10-07T01:09:35.214Z,101662.09
2023-10-07T01:14:36.345Z,101689.06
2023-10-07T01:17:04.402Z,101667.16
2023-10-07T01:19:36.784Z,101669.28
2023-10-07T01:22:13.970Z,101658.03
2023-10-07T01:24:40.482Z,101656.31
2023-10-07T01:27:21.108Z,101659.94
2023-10-07T01:30:00.766Z,101653.56
2023-10-07T01:32:34.325Z,101642.34
2023-10-07T01:35:11.965Z,101656.13
2023-10-07T01:37:45.346Z,101655.28
2023-10-07T01:40:17.348Z,101653.56
2023-10-07T01:42:45.257Z,101651.22
2023-10-07T01:45:21.364Z,101647.78
2023-10-07T01:47:56.747Z,101657.53
2023-10-07T01:50:26.191Z,101659.84
2023-10-07T01:52:56.608Z,101645.59
2023-10-07T01:55:28.620Z,101652.56
2023-10-07T01:57:55.828Z,101650.84
2023-10-07T02:00:42.383Z,101647.88
2023-10-07T02:03:10.967Z,101642.28
2023-10-07T02:05:48.104Z,101632.50
2023-10-07T02:08:21.647Z,101639.91
2023-10-07T02:10:52.649Z,101631.47
2023-10-07T02:13:23.185Z,101631.25
2023-10-07T02:15:52.843Z,101628.28
2023-10-07T02:18:20.016Z,101627.25
2023-10-07T02:20:54.212Z,101646.34
2023-10-07T02:23:38.184Z,101643.38
2023-10-07T02:26:15.563Z,101640.81
2023-10-07T02:28:43.682Z,101638.06
2023-10-07T02:31:16.563Z,101645.28
2023-10-07T02:33:43.619Z,101642.72
2023-10-07T02:36:15.957Z,101646.56
2023-10-07T02:38:45.275Z,101650.53
2023-10-07T02:41:18.775Z,101638.03
2023-10-07T02:43:50.036Z,101631.00
2023-10-07T02:46:34.026Z,101636.72
2023-10-07T02:49:11.370Z,101628.84
2023-10-07T02:51:50.491Z,101624.59
2023-10-07T02:54:20.731Z,101620.97
2023-10-07T02:56:57.566Z,101623.94
2023-10-07T02:59:28.981Z,101629.44
2023-10-07T03:02:16.205Z,101635.81
2023-10-07T03:05:13.644Z,101642.59
2023-10-07T03:07:51.094Z,101648.09
2023-10-07T03:10:18.332Z,101651.03
2023-10-07T03:12:49.337Z,101647.88
2023-10-07T03:15:30.489Z,101646.44
2023-10-07T03:17:57.325Z,101650.91
2023-10-07T03:20:23.878Z,101647.28
2023-10-07T03:23:09.894Z,101655.16
2023-10-07T03:25:51.409Z,101648.78
2023-10-07T03:28:18.778Z,101652.22
2023-10-07T03:30:48.842Z,101635.44
2023-10-07T03:33:17.101Z,101658.38
2023-10-07T03:35:58.549Z,101668.34
2023-10-07T03:38:28.920Z,101649.06
2023-10-07T03:40:56.630Z,101636.13
2023-10-07T03:43:27.137Z,101627.00
2023-10-07T03:45:57.060Z,101641.81
2023-10-07T03:48:24.802Z,101644.97
2023-10-07T03:51:06.011Z,101644.34
2023-10-07T03:53:33.473Z,101636.94
2023-10-07T03:56:07.756Z,101635.00
2023-10-07T03:58:38.249Z,101641.81
2023-10-07T04:01:23.565Z,101623.19
2023-10-07T04:03:52.356Z,101633.63
2023-10-07T04:06:28.687Z,101639.19
2023-10-07T04:08:57.827Z,101647.03
2023-10-07T04:11:27.775Z,101628.38
2023-10-07T04:13:57.137Z,101628.19
2023-10-07T04:16:25.750Z,101609.31
2023-10-07T04:18:54.419Z,101623.38
2023-10-07T04:21:24.553Z,101620.41
2023-10-07T04:23:51.451Z,101627.47
2023-10-07T04:26:21.185Z,101622.59
2023-10-07T04:28:49.813Z,101609.25
2023-10-07T04:31:30.265Z,101624.34
2023-10-07T04:33:56.878Z,101618.63
2023-10-07T04:36:36.503Z,101620.72
2023-10-07T04:39:18.423Z,101630.28
2023-10-07T04:41:45.050Z,101625.63
2023-10-07T04:44:30.318Z,101619.69
2023-10-07T04:47:05.069Z,101626.72
2023-10-07T04:49:38.669Z,101625.66
2023-10-07T04:52:08.637Z,101619.09
2023-10-07T04:54:36.948Z,101611.44
2023-10-07T04:57:11.237Z,101614.03
2023-10-07T04:59:46.631Z,101621.03
2023-10-07T05:02:14.216Z,101605.31
2023-10-07T05:04:42.982Z,101599.38
2023-10-07T05:07:11.926Z,101596.44
2023-10-07T05:09:39.763Z,101605.34
2023-10-07T05:12:07.958Z,101611.31
2023-10-07T05:14:36.594Z,101614.91
2023-10-07T05:17:03.468Z,101619.41
2023-10-07T05:19:31.673Z,101633.81
2023-10-07T05:22:01.843Z,101616.88
2023-10-07T05:24:34.092Z,101618.56
2023-10-07T05:27:01.516Z,101618.13
2023-10-07T05:29:29.946Z,101618.81
2023-10-07T05:31:59.371Z,101624.97
2023-10-07T05:34:34.864Z,101615.63
2023-10-07T05:37:04.628Z,101610.09
2023-10-07T05:39:33.854Z,101609.06
2023-10-07T05:42:04.516Z,101626.25
2023-10-07T05:44:31.695Z,101619.69
2023-10-07T05:47:00.305Z,101622.88
2023-10-07T05:49:27.082Z,101616.94
2023-10-07T05:51:54.392Z,101617.78
2023-10-07T05:54:21.077Z,101615.28
2023-10-07T05:56:48.707Z,101607.63
2023-10-07T05:59:16.147Z,101608.91
2023-10-07T06:01:44.376Z,101617.44
2023-10-07T06:04:13.077Z,101619.09
2023-10-07T06:06:43.349Z,101619.53
2023-10-07T06:09:15.842Z,101616.38
2023-10-07T06:11:43.587Z,101619.78
2023-10-07T06:14:12.821Z,101621.25
2023-10-07T06:16:41.212Z,101618.09
2023-10-07T06:19:09.218Z,101627.69
2023-10-07T06:21:35.923Z,101618.97
2023-10-07T06:24:08.815Z,101608.53
2023-10-07T06:26:36.760Z,101611.97
2023-10-07T06:29:07.531Z,101625.13
2023-10-07T06:31:34.621Z,101620.03
2023-10-07T06:34:01.373Z,101626.84
2023-10-07T06:36:31.529Z,101626.44
2023-10-07T06:39:08.832Z,101634.94
2023-10-07T06:41:36.720Z,101633.47
2023-10-07T06:44:04.361Z,101635.38
2023-10-07T06:46:41.801Z,101641.78
2023-10-07T06:49:17.290Z,101637.34
2023-10-07T06:51:52.042Z,101645.63
2023-10-07T06:54:18.665Z,101643.94
2023-10-07T06:56:46.660Z,101646.91
2023-10-07T06:59:14.873Z,101654.97
2023-10-07T07:01:41.634Z,101660.75
2023-10-07T07:04:20.362Z,101660.72
2023-10-07T07:06:58.644Z,101666.69
2023-10-07T07:09:42.957Z,101669.44
2023-10-07T07:12:10.823Z,101669.41
2023-10-07T07:14:38.050Z,101663.91
2023-10-07T07:17:26.330Z,101668.13
2023-10-07T07:20:12.074Z,101670.03
2023-10-07T07:22:40.229Z,101684.72
2023-10-07T07:25:13.775Z,101678.97
2023-10-07T07:27:46.874Z,101679.53
2023-10-07T07:30:33.093Z,101685.91
2023-10-07T07:33:08.085Z,101685.88
2023-10-07T07:35:42.904Z,101675.69
2023-10-07T07:38:25.199Z,101669.25
2023-10-07T07:40:53.575Z,101667.50
2023-10-07T07:43:20.922Z,101673.06
2023-10-07T07:45:48.278Z,101673.88
2023-10-07T07:48:15.832Z,101671.50
2023-10-07T07:50:42.677Z,101666.53
2023-10-07T07:53:10.390Z,101673.34
2023-10-07T07:55:45.263Z,101661.97
2023-10-07T07:58:12.296Z,101668.34
2023-10-07T08:00:45.570Z,101663.38
2023-10-07T08:03:17.781Z,101675.88
2023-10-07T08:05:44.648Z,101664.53
2023-10-07T08:08:20.045Z,101657.84
2023-10-07T08:10:47.955Z,101670.38
2023-10-07T08:13:18.633Z,101671.19
2023-10-07T08:15:48.788Z,101670.94
2023-10-07T08:18:15.667Z,101661.69
2023-10-07T08:20:49.436Z,101666.31
2023-10-07T08:23:30.946Z,101662.00
2023-10-07T08:26:11.484Z,101659.88
2023-10-07T08:28:42.370Z,101662.78
2023-10-07T08:31:18.119Z,101667.44
2023-10-07T08:34:11.335Z,101658.88
2023-10-07T08:36:44.196Z,101657.81
2023-10-07T08:39:11.357Z,101662.66
2023-10-07T08:41:41.425Z,101657.50
2023-10-07T08:44:14.948Z,101655.13
2023-10-07T08:46:55.238Z,101644.59
2023-10-07T08:49:26.956Z,101643.72
2023-10-07T08:52:00.604Z,101644.69
2023-10-07T08:54:27.851Z,101655.72
2023-10-07T08:57:10.789Z,101648.19
2023-10-07T08:59:39.253Z,101648.09
2023-10-07T09:02:05.954Z,101652.03
2023-10-07T09:04:33.247Z,101646.63
2023-10-07T09:07:10.231Z,101651.25
2023-10-07T09:09:44.730Z,101652.03
2023-10-07T09:12:31.421Z,101652.56
2023-10-07T09:14:59.297Z,101651.44
2023-10-07T09:17:28.200Z,101652.84
2023-10-07T09:19:59.880Z,101656.16
2023-10-07T09:22:36.487Z,101655.19
2023-10-07T09:25:19.110Z,101653.16
2023-10-07T09:27:59.398Z,101649.66
2023-10-07T09:30:44.816Z,101650.91
2023-10-07T09:33:19.875Z,101650.78
2023-10-07T09:36:10.305Z,101649.81
2023-10-07T09:38:44.008Z,101647.19
2023-10-07T09:41:14.314Z,101656.84
2023-10-07T09:43:53.231Z,101656.03
2023-10-07T09:48:59.079Z,101654.22
2023-10-07T09:51:35.990Z,101654.78
2023-10-07T09:54:37.880Z,101662.00
2023-10-07T09:57:23.213Z,101658.28
2023-10-07T09:59:58.692Z,101657.16
2023-10-07T10:03:05.323Z,101649.66
2023-10-07T10:05:41.875Z,101645.44
2023-10-07T10:08:45.832Z,101646.88
2023-10-07T10:11:32.403Z,101636.00
2023-10-07T10:14:15.667Z,101629.06
2023-10-07T10:16:46.836Z,101635.56
2023-10-07T10:19:38.680Z,101626.81
2023-10-07T10:22:11.792Z,101629.31
2023-10-07T10:24:46.190Z,101623.97
2023-10-07T10:27:14.577Z,101615.06
2023-10-07T10:29:56.413Z,101607.97
2023-10-07T10:32:30.739Z,101614.97
2023-10-07T10:35:02.648Z,101618.47
2023-10-07T10:37:31.937Z,101609.47
2023-10-07T10:40:06.851Z,101606.38
2023-10-07T10:42:43.928Z,101596.03
2023-10-07T10:45:31.295Z,101599.88
2023-10-07T10:48:03.134Z,101588.47
2023-10-07T10:50:33.697Z,101593.34
2023-10-07T10:53:01.507Z,101594.31
2023-10-07T10:55:39.423Z,101590.34
2023-10-07T10:58:18.114Z,101582.66
2023-10-07T11:00:52.777Z,101584.38
2023-10-07T11:03:23.039Z,101588.28
2023-10-07T11:05:52.123Z,101575.47
2023-10-07T11:08:24.224Z,101579.19
2023-10-07T11:10:54.039Z,101564.38
2023-10-07T11:13:21.693Z,101563.84
2023-10-07T11:16:11.895Z,101557.72
2023-10-07T11:18:40.495Z,101555.50
2023-10-07T11:21:13.632Z,101559.44
2023-10-07T11:23:50.921Z,101553.84
2023-10-07T11:26:21.315Z,101555.50
2023-10-07T11:28:52.917Z,101549.91
2023-10-07T11:31:32.661Z,101551.28
2023-10-07T11:34:00.749Z,101553.25
2023-10-07T11:36:27.684Z,101553.81
2023-10-07T11:38:55.241Z,101545.97
2023-10-07T11:41:22.047Z,101545.91
2023-10-07T11:43:48.635Z,101547.59
2023-10-07T11:46:15.738Z,101547.84
2023-10-07T11:48:45.453Z,101537.69
2023-10-07T11:51:13.252Z,101529.47
2023-10-07T11:53:42.228Z,101529.22
2023-10-07T11:56:13.245Z,101513.44
2023-10-07T11:58:40.221Z,101513.34
2023-10-07T12:01:08.934Z,101517.53
2023-10-07T12:03:35.886Z,101512.41
2023-10-07T12:06:02.513Z,101518.44
2023-10-07T12:08:30.881Z,101513.59
2023-10-07T12:10:57.718Z,101512.13
2023-10-07T12:13:28.167Z,101510.28
2023-10-07T12:16:05.419Z,101509.84
2023-10-07T12:18:33.418Z,101516.56
2023-10-07T12:21:02.443Z,101510.53
2023-10-07T12:23:29.905Z,101506.28
2023-10-07T12:25:58.300Z,101508.22
2023-10-07T12:28:25.279Z,101505.75
2023-10-07T12:30:53.222Z,101500.34
2023-10-07T12:33:33.186Z,101503.16
2023-10-07T12:36:13.956Z,101498.56
2023-10-07T12:38:40.623Z,101490.53
2023-10-07T12:41:13.454Z,101490.41
2023-10-07T12:43:40.106Z,101486.47
2023-10-07T12:46:15.941Z,101484.72
2023-10-07T12:48:43.173Z,101482.19
2023-10-07T12:51:10.010Z,101486.81
2023-10-07T12:53:37.400Z,101477.13
2023-10-07T12:56:20.425Z,101477.06
2023-10-07T12:58:47.547Z,101476.59
2023-10-07T13:01:14.581Z,101466.72
2023-10-07T13:03:44.658Z,101483.06
2023-10-07T13:06:12.621Z,101465.94
2023-10-07T13:08:42.234Z,101461.69
2023-10-07T13:11:13.168Z,101469.38
2023-10-07T13:13:40.854Z,101461.22
2023-10-07T13:16:12.064Z,101456.50
2023-10-07T13:18:42.766Z,101462.06
2023-10-07T13:21:14.548Z,101446.03
2023-10-07T13:23:42.108Z,101452.16
2023-10-07T13:26:12.537Z,101444.66
2023-10-07T13:28:40.107Z,101442.09
2023-10-07T13:31:08.988Z,101437.63
2023-10-07T13:33:37.280Z,101437.56
2023-10-07T13:36:08.745Z,101437.56
2023-10-07T13:38:36.116Z,101443.38
2023-10-07T13:41:07.061Z,101440.19
2023-10-07T13:43:36.221Z,101441.91
2023-10-07T13:46:13.309Z,101439.53
2023-10-07T13:48:39.959Z,101434.22
2023-10-07T13:51:09.600Z,101433.50
2023-10-07T13:53:53.120Z,101435.06
2023-10-07T13:56:44.710Z,101437.22
2023-10-07T13:59:12.493Z,101440.91
2023-10-07T14:01:39.184Z,101446.94
2023-10-07T14:04:07.516Z,101439.59
2023-10-07T14:06:34.777Z,101441.31
2023-10-07T14:09:02.341Z,101440.47
2023-10-07T14:11:28.931Z,101445.66
2023-10-07T14:13:55.453Z,101437.13
2023-10-07T14:16:22.275Z,101435.31
2023-10-07T14:18:50.983Z,101436.59
2023-10-07T14:21:18.274Z,101436.59
2023-10-07T14:23:44.876Z,101430.94
2023-10-07T14:26:15.195Z,101436.78
2023-10-07T14:28:45.273Z,101425.69
2023-10-07T14:31:14.612Z,101437.34
2023-10-07T14:33:41.766Z,101434.50
2023-10-07T14:36:11.368Z,101437.72
2023-10-07T14:38:38.651Z,101428.75
2023-10-07T14:41:09.010Z,101418.66
2023-10-07T14:43:38.858Z,101419.03
2023-10-07T14:46:05.919Z,101429.91
2023-10-07T14:48:36.115Z,101417.72
2023-10-07T14:51:06.770Z,101415.22
2023-10-07T14:53:37.883Z,101410.53
2023-10-07T14:56:22.974Z,101413.06
2023-10-07T14:58:50.984Z,101403.03
2023-10-07T15:01:23.113Z,101419.59
2023-10-07T15:03:55.964Z,101407.91
2023-10-07T15:06:23.027Z,101404.53
2023-10-07T15:08:51.398Z,101399.50
2023-10-07T15:11:19.562Z,101392.81
2023-10-07T15:13:50.851Z,101397.00
2023-10-07T15:16:18.330Z,101394.16
2023-10-07T15:18:47.890Z,101398.16
2023-10-07T15:21:15.882Z,101387.28
2023-10-07T15:23:42.743Z,101395.00
2023-10-07T15:26:18.151Z,101389.63
2023-10-07T15:28:45.895Z,101394.16
2023-10-07T15:31:21.204Z,101386.72
2023-10-07T15:33:57.442Z,101374.59
2023-10-07T15:36:25.344Z,101384.59
2023-10-07T15:38:53.288Z,101392.81
2023-10-07T15:41:23.126Z,101387.28
2023-10-07T15:43:50.279Z,101396.19
2023-10-07T15:46:20.466Z,101387.84
2023-10-07T15:48:47.815Z,101392.94
2023-10-07T15:51:18.976Z,101382.28
2023-10-07T15:53:46.087Z,101397.53
2023-10-07T15:56:14.453Z,101391.34
2023-10-07T15:58:45.812Z,101398.28
2023-10-07T16:01:13.299Z,101393.94
2023-10-07T16:03:42.439Z,101396.84
2023-10-07T16:06:09.536Z,101400.59
2023-10-07T16:08:39.484Z,101401.31
2023-10-07T16:11:09.349Z,101409.78
2023-10-07T16:13:36.298Z,101406.91
2023-10-07T16:16:09.814Z,101413.34
2023-10-07T16:18:36.582Z,101409.00
2023-10-07T16:21:11.010Z,101419.31
2023-10-07T16:23:38.843Z,101421.34
2023-10-07T16:26:07.701Z,101414.69
2023-10-07T16:28:55.959Z,101422.72
2023-10-07T16:31:24.493Z,101427.94
2023-10-07T16:33:51.067Z,101427.53
2023-10-07T16:36:17.629Z,101436.50
2023-10-07T16:38:45.582Z,101432.63
2023-10-07T16:41:18.186Z,101436.00
2023-10-07T16:43:45.156Z,101446.63
2023-10-07T16:46:11.943Z,101448.47
2023-10-07T16:48:42.123Z,101449.75
2023-10-07T16:51:10.720Z,101461.72
2023-10-07T16:53:40.017Z,101462.41
2023-10-07T16:56:10.067Z,101468.97
2023-10-07T16:58:36.840Z,101481.13
2023-10-07T17:01:06.586Z,101485.16
2023-10-07T17:03:33.239Z,101500.97
2023-10-07T17:06:05.088Z,101508.84
2023-10-07T17:08:32.378Z,101508.88
2023-10-07T17:10:59.323Z,101504.97
2023-10-07T17:13:26.212Z,101505.22
2023-10-07T17:15:54.164Z,101515.25
2023-10-07T17:18:22.413Z,101518.06
2023-10-07T17:20:49.594Z,101511.25
2023-10-07T17:23:16.679Z,101513.19
2023-10-07T17:25:46.249Z,101508.66
2023-10-07T17:28:13.125Z,101518.47
2023-10-07T17:30:49.486Z,101515.84
2023-10-07T17:33:16.804Z,101519.13
2023-10-07T17:35:44.478Z,101504.47
2023-10-07T17:38:12.355Z,101502.72
2023-10-07T17:40:39.889Z,101502.34
2023-10-07T17:43:09.753Z,101496.34
2023-10-07T17:45:37.651Z,101511.91
2023-10-07T17:48:04.633Z,101510.66
2023-10-07T17:50:32.620Z,101500.72
2023-10-07T17:53:00.251Z,101498.13
2023-10-07T17:55:27.035Z,101507.78
2023-10-07T17:57:54.284Z,101505.69
2023-10-07T18:00:41.187Z,101518.94
2023-10-07T18:03:08.515Z,101512.91
2023-10-07T18:05:35.272Z,101522.59
2023-10-07T18:08:01.922Z,101512.97
2023-10-07T18:10:30.249Z,101511.75
2023-10-07T18:12:58.209Z,101514.97
2023-10-07T18:15:24.737Z,101521.81
2023-10-07T18:17:52.925Z,101517.75
2023-10-07T18:20:20.160Z,101524.63
2023-10-07T18:22:52.958Z,101520.81
2023-10-07T18:25:21.845Z,101522.09
2023-10-07T18:27:48.926Z,101529.78
2023-10-07T18:30:16.100Z,101541.38
2023-10-07T18:32:43.100Z,101535.13
2023-10-07T18:35:09.889Z,101534.97
2023-10-07T18:37:36.747Z,101539.88
2023-10-07T18:40:03.647Z,101538.91
2023-10-07T18:42:31.769Z,101545.53
2023-10-07T18:45:01.779Z,101539.25
2023-10-07T18:47:29.027Z,101539.41
2023-10-07T18:49:55.741Z,101554.47
2023-10-07T18:52:25.406Z,101547.69
2023-10-07T18:54:52.321Z,101548.94
2023-10-07T18:57:18.899Z,101551.34
2023-10-07T18:59:48.506Z,101552.44
2023-10-07T19:02:15.857Z,101550.38
2023-10-07T19:04:42.678Z,101556.81
2023-10-07T19:07:09.240Z,101554.88
2023-10-07T19:09:38.541Z,101541.16
2023-10-07T19:12:07.843Z,101560.09
2023-10-07T19:14:34.768Z,101549.69
2023-10-07T19:17:01.598Z,101564.63
2023-10-07T19:19:28.493Z,101569.00
2023-10-07T19:21:55.372Z,101575.59
2023-10-07T19:24:24.320Z,101582.75
2023-10-07T19:26:51.139Z,101579.59
2023-10-07T19:29:18.045Z,101584.47
2023-10-07T19:31:44.680Z,101581.94
2023-10-07T19:34:11.257Z,101578.56
2023-10-07T19:36:37.822Z,101581.56
2023-10-07T19:39:04.587Z,101593.22
2023-10-07T19:41:31.117Z,101593.72
2023-10-07T19:43:57.645Z,101593.59
2023-10-07T19:46:24.251Z,101607.16
2023-10-07T19:48:50.803Z,101592.25
2023-10-07T19:51:18.768Z,101605.59
2023-10-07T19:53:45.459Z,101594.94
2023-10-07T19:56:12.170Z,101592.66
2023-10-07T19:58:38.829Z,101592.50
2023-10-07T20:01:08.336Z,101595.16
2023-10-07T20:03:36.373Z,101589.25
2023-10-07T20:06:12.799Z,101590.59
2023-10-07T20:08:43.127Z,101587.63
2023-10-07T20:11:13.135Z,101595.03
2023-10-07T20:13:40.135Z,101587.41
2023-10-07T20:16:07.821Z,101590.66
2023-10-07T20:18:35.529Z,101584.97
2023-10-07T20:21:02.577Z,101589.09
2023-10-07T20:23:29.553Z,101585.31
2023-10-07T20:26:07.857Z,101583.00
2023-10-07T20:28:37.035Z,101587.13
2023-10-07T20:31:07.570Z,101584.00
2023-10-07T20:33:34.826Z,101586.16
2023-10-07T20:36:02.114Z,101586.63
2023-10-07T20:38:29.626Z,101577.69
2023-10-07T20:40:58.693Z,101575.13
2023-10-07T20:43:28.613Z,101583.59
2023-10-07T20:46:03.335Z,101579.09
2023-10-07T20:48:30.934Z,101585.16
2023-10-07T20:51:07.985Z,101590.34
2023-10-07T20:53:36.615Z,101586.59
2023-10-07T20:56:03.717Z,101578.97
2023-10-07T20:58:30.592Z,101594.06
2023-10-07T21:01:00.774Z,101593.69
2023-10-07T21:03:28.108Z,101603.34
2023-10-07T21:05:55.168Z,101583.47
2023-10-07T21:08:22.768Z,101594.50
2023-10-07T21:10:49.467Z,101581.06
2023-10-07T21:13:16.298Z,101584.50
2023-10-07T21:15:45.755Z,101586.66
2023-10-07T21:18:12.443Z,101576.03
2023-10-07T21:20:44.465Z,101576.88
2023-10-07T21:23:12.465Z,101566.00
2023-10-07T21:25:49.808Z,101581.84
2023-10-07T21:28:18.881Z,101564.53
2023-10-07T21:30:49.826Z,101574.78
2023-10-07T21:33:17.922Z,101578.69
2023-10-07T21:35:45.891Z,101576.97
2023-10-07T21:38:14.008Z,101575.75
2023-10-07T21:40:42.525Z,101574.03
2023-10-07T21:43:10.166Z,101563.41
2023-10-07T21:45:41.639Z,101579.00
2023-10-07T21:48:10.369Z,101574.72
2023-10-07T21:50:37.707Z,101576.69
2023-10-07T21:53:05.466Z,101591.88
2023-10-07T21:55:34.155Z,101598.75
2023-10-07T21:58:01.929Z,101593.91
2023-10-07T22:00:28.821Z,101605.66
2023-10-07T22:02:57.178Z,101615.66
2023-10-07T22:05:27.362Z,101624.25
2023-10-07T22:07:54.803Z,101631.50
2023-10-07T22:10:34.389Z,101637.06
2023-10-07T22:13:02.275Z,101639.69
2023-10-07T22:15:28.912Z,101636.28
2023-10-07T22:17:58.605Z,101635.66
2023-10-07T22:20:25.261Z,101642.78
2023-10-07T22:22:52.613Z,101646.22
2023-10-07T22:25:19.666Z,101653.56
2023-10-07T22:27:47.756Z,101648.50
2023-10-07T22:30:18.751Z,101657.50
2023-10-07T22:32:46.921Z,101647.94
2023-10-07T22:35:23.735Z,101642.00
2023-10-07T22:37:59.042Z,101648.22
2023-10-07T22:40:33.041Z,101643.53
2023-10-07T22:43:00.197Z,101652.31
2023-10-07T22:45:59.347Z,101660.00
2023-10-07T22:48:28.851Z,101657.09
2023-10-07T22:51:10.351Z,101658.16
2023-10-07T22:53:50.880Z,101651.38
2023-10-07T22:56:20.902Z,101655.66
2023-10-07T22:58:49.520Z,101656.34
2023-10-07T23:01:19.795Z,101656.59
2023-10-07T23:03:50.506Z,101652.56
2023-10-07T23:06:19.612Z,101653.25
2023-10-07T23:08:59.935Z,101657.31
2023-10-07T23:11:28.279Z,101655.84
2023-10-07T23:14:08.602Z,101655.84
2023-10-07T23:16:39.309Z,101661.81
2023-10-07T23:19:09.613Z,101658.81
2023-10-07T23:21:46.078Z,101656.22
2023-10-07T23:24:33.439Z,101657.94
2023-10-07T23:27:07.183Z,101663.28
2023-10-07T23:29:44.714Z,101658.59
2023-10-07T23:32:16.060Z,101651.31
2023-10-07T23:34:45.401Z,101654.94
2023-10-07T23:37:17.944Z,101667.34
2023-10-07T23:39:48.736Z,101657.94
2023-10-07T23:42:23.742Z,101658.78
2023-10-07T23:44:54.320Z,101651.97
2023-10-07T23:47:23.953Z,101658.13
2023-10-07T23:49:55.766Z,101658.13
2023-10-07T23:52:26.211Z,101652.09
2023-10-07T23:55:00.165Z,101651.03
2023-10-07T23:57:31.480Z,101651.03
2023-10-07T23:59:58.758Z,101652.75
